Aérodrome :
LOGIN :

S'inscrire | Disclaimer

   EN    FR    IT 

 










Légende :    VFR   VFR Marginal   IFR   IFR Intensif   IFR Très Intensif
Visi : 
Plafond : 
>= 8 km
>= 3000ft
5 à 8 km
1000 à 3000 ft
1500m à 5 km
500 à 1000 ft
800 à 1500m
200 à 500 ft
< 800m
< 200 ft
Symboles :   Orages  Brouillard  Fortes neiges  Fortes précipitations  Vent > 20 kt
SIGMETs :   Divers  Orages  Givrage  Turbulence  Onde Orograph.  Cendres Volcan.






- Altitude de l'aérodrome : 359 ft
- Code IATA : BVA


LFOB - Beauvais

DERNIER METAR :
  • 262300Z AUTO 19014KT 9000 -RA BKN012/// BKN021/// BKN045/// ///CB 08/07 Q1012 TEMPO 20015G25KT 2000 DZRA BR OVC003

METARs EXPIRÉS :
  • 262230Z AUTO 20015KT 6000 RA BKN014/// BKN022/// BKN050/// ///CB 09/07 Q1012 TEMPO 20015G25KT 2000 DZRA BR OVC003
  • 262200Z AUTO 19012KT 9999 -RADZ BKN017/// BKN022/// OVC050/// ///TCU 09/07 Q1012 TEMPO 20015G25KT 2000 DZRA BR OVC003
  • 262130Z AUTO 19012KT 9999 -RA FEW027/// SCT052/// BKN062/// ///TCU 08/07 Q1012 TEMPO 20015G25KT 2000 DZRA BR OVC003
  • 262100Z AUTO 19011KT 9999 FEW026/// SCT040/// BKN048/// ///TCU 08/06 Q1013 TEMPO 20015G25KT 2000 DZRA BR OVC003
  • 262030Z AUTO 19009KT 9999 FEW030 BKN046 OVC064 08/06 Q1013 TEMPO 20015G25KT 2000 DZRA BR OVC003

TAF TAF LFOB
Valide du 26 à 18h jusqu'au 27 à 18h UTC


261700Z 2618/2718 20010KT 8000 SCT007 BKN015
TEMPO 2618/2620 BKN007
TEMPO 2620/2703 2000 DZRA BR OVC003
PROB40
TEMPO 2621/2704 20015G25KT
TEMPO 2703/2711 BKN007
BECMG 2711/2713 4000 RA BKN007
BECMG 2716/2718 20015G25KT
ATIS : +33 3 44 11 49 28



MET'MAP, la Météo Aéronautique d'un coup d'oeil ! - Copyright ORBIFLY Décembre 2007 - Disclaimer

ORBIFLY MET'MAP TEAM :

Programmation & Développement : Alexandra Zaïnal
Sur une idée originale de : Baudouin d'Aumeries
Assistance à la programmation : Marc-Olivier Méhu
Soutien technique & logistique : Manuel Goepfert

Contact : metmap@orbifly.com




SOURCES & CREDITS :

   NOAA